createdAt,value
2023-03-18T00:00:04.419Z,1012.28
2023-03-18T00:05:03.188Z,1012.39
2023-03-18T00:10:04.390Z,1012.45
2023-03-18T00:15:03.266Z,1012.52
2023-03-18T00:20:04.363Z,1012.58
2023-03-18T00:25:03.306Z,1012.64
2023-03-18T00:30:04.468Z,1012.71
2023-03-18T00:35:03.416Z,1012.77
2023-03-18T00:40:04.273Z,1012.77
2023-03-18T00:45:03.393Z,1012.87
2023-03-18T00:50:04.390Z,1012.93
2023-03-18T00:55:03.424Z,1012.97
2023-03-18T01:00:04.478Z,1013.0
2023-03-18T01:05:03.203Z,1013.05
2023-03-18T01:10:04.253Z,1013.1
2023-03-18T01:15:03.381Z,1013.08
2023-03-18T01:20:04.420Z,1013.15
2023-03-18T01:25:03.353Z,1013.19
2023-03-18T01:30:04.469Z,1013.27
2023-03-18T01:35:03.224Z,1013.25
2023-03-18T01:40:04.351Z,1013.34
2023-03-18T01:45:03.282Z,1013.39
2023-03-18T01:50:04.350Z,1013.42
2023-03-18T01:55:03.406Z,1013.44
2023-03-18T02:00:04.441Z,1013.43
2023-03-18T02:05:03.191Z,1013.44
2023-03-18T02:10:04.274Z,1013.46
2023-03-18T02:15:03.391Z,1013.44
2023-03-18T02:20:05.386Z,1013.44
2023-03-18T02:25:03.354Z,1013.37
2023-03-18T02:30:04.221Z,1013.29
2023-03-18T02:35:03.195Z,1013.28
2023-03-18T02:40:04.306Z,1013.3
2023-03-18T02:45:03.298Z,1013.35
2023-03-18T02:50:04.172Z,1013.36
2023-03-18T02:55:03.411Z,1013.32
2023-03-18T03:00:04.459Z,1013.35
2023-03-18T03:05:03.413Z,1013.31
2023-03-18T03:10:04.489Z,1013.3
2023-03-18T03:15:03.254Z,1013.32
2023-03-18T03:20:04.289Z,1013.29
2023-03-18T03:25:03.357Z,1013.38
2023-03-18T03:30:04.268Z,1013.36
2023-03-18T03:35:03.418Z,1013.35
2023-03-18T03:40:04.248Z,1013.35
2023-03-18T03:45:03.349Z,1013.36
2023-03-18T03:50:04.262Z,1013.3
2023-03-18T03:55:03.323Z,1013.25
2023-03-18T04:00:04.531Z,1013.21
2023-03-18T04:05:03.191Z,1013.16
2023-03-18T04:10:04.945Z,1013.17
2023-03-18T04:15:03.406Z,1013.14
2023-03-18T04:20:04.293Z,1013.17
2023-03-18T04:25:03.287Z,1013.24
2023-03-18T04:30:04.192Z,1013.31
2023-03-18T04:35:03.351Z,1013.29
2023-03-18T04:40:04.235Z,1013.33
2023-03-18T04:45:03.260Z,1013.32
2023-03-18T04:50:04.422Z,1013.35
2023-03-18T04:55:03.344Z,1013.37
2023-03-18T05:00:04.412Z,1013.27
2023-03-18T05:05:03.237Z,1013.2
2023-03-18T05:10:04.306Z,1013.16
2023-03-18T05:15:03.216Z,1013.11
2023-03-18T05:20:04.341Z,1013.08
2023-03-18T05:25:03.326Z,1013.06
2023-03-18T05:30:04.141Z,1013.02
2023-03-18T05:35:03.194Z,1013.0
2023-03-18T05:40:04.255Z,1012.95
2023-03-18T05:45:03.233Z,1012.89
2023-03-18T05:50:04.381Z,1012.94
2023-03-18T05:55:03.501Z,1012.92
2023-03-18T06:00:04.238Z,1012.9
2023-03-18T06:05:03.175Z,1012.91
2023-03-18T06:10:04.234Z,1012.87
2023-03-18T06:15:03.262Z,1012.88
2023-03-18T06:20:04.356Z,1012.86
2023-03-18T06:25:03.339Z,1012.85
2023-03-18T06:30:05.477Z,1012.78
2023-03-18T06:35:03.377Z,1012.78
2023-03-18T06:40:04.242Z,1012.82
2023-03-18T06:45:03.290Z,1012.78
2023-03-18T06:50:06.558Z,1012.84
2023-03-18T06:55:03.311Z,1012.8
2023-03-18T07:00:04.374Z,1012.75
2023-03-18T07:05:03.267Z,1012.76
2023-03-18T07:10:04.305Z,1012.82
2023-03-18T07:15:03.275Z,1012.8
2023-03-18T07:20:04.338Z,1012.79
2023-03-18T07:25:03.461Z,1012.77
2023-03-18T07:30:04.524Z,1012.74
2023-03-18T07:35:03.368Z,1012.76
2023-03-18T07:40:04.199Z,1012.69
2023-03-18T07:45:03.238Z,1012.73
2023-03-18T07:50:05.051Z,1012.76
2023-03-18T07:55:03.296Z,1012.72
2023-03-18T08:00:05.446Z,1012.7
2023-03-18T08:05:03.473Z,1012.71
2023-03-18T08:10:04.276Z,1012.72
2023-03-18T08:15:03.325Z,1012.84
2023-03-18T08:20:04.286Z,1012.94
2023-03-18T08:25:03.274Z,1012.94
2023-03-18T08:30:05.367Z,1012.94
2023-03-18T08:35:03.573Z,1013.02
2023-03-18T08:40:04.288Z,1013.08
2023-03-18T08:45:03.208Z,1013.1
2023-03-18T08:50:04.300Z,1013.13
2023-03-18T08:55:03.247Z,1013.13
2023-03-18T09:00:04.212Z,1013.15
2023-03-18T09:05:03.167Z,1013.27
2023-03-18T09:10:04.319Z,1013.27
2023-03-18T09:15:03.241Z,1013.36
2023-03-18T09:20:05.400Z,1013.39
2023-03-18T09:25:03.335Z,1013.44
2023-03-18T09:30:05.081Z,1013.51
2023-03-18T09:35:03.450Z,1013.55
2023-03-18T09:40:04.189Z,1013.66
2023-03-18T09:45:03.459Z,1013.74
2023-03-18T09:50:04.319Z,1013.79
2023-03-18T09:55:03.283Z,1013.84
2023-03-18T10:00:04.389Z,1013.84
2023-03-18T10:05:03.136Z,1013.89
2023-03-18T10:10:04.308Z,1013.89
2023-03-18T10:15:03.236Z,1013.88
2023-03-18T10:20:04.292Z,1013.93
2023-03-18T10:25:03.280Z,1013.93
2023-03-18T10:30:04.379Z,1013.97
2023-03-18T10:35:03.370Z,1014.02
2023-03-18T10:40:04.251Z,1014.03
2023-03-18T10:45:03.197Z,1014.16
2023-03-18T10:50:04.309Z,1014.19
2023-03-18T10:55:03.296Z,1014.21
2023-03-18T11:00:04.385Z,1014.2
2023-03-18T11:05:03.423Z,1014.27
2023-03-18T11:10:04.262Z,1014.3
2023-03-18T11:15:03.189Z,1014.37
2023-03-18T11:20:04.290Z,1014.43
2023-03-18T11:25:03.322Z,1014.54
2023-03-18T11:30:04.511Z,1014.53
2023-03-18T11:35:03.373Z,1014.53
2023-03-18T11:40:04.230Z,1014.58
2023-03-18T11:45:03.363Z,1014.58
2023-03-18T11:50:04.381Z,1014.6
2023-03-18T11:55:03.260Z,1014.63
2023-03-18T12:00:09.372Z,1014.67
2023-03-18T12:05:03.387Z,1014.69
2023-03-18T12:10:04.259Z,1014.74
2023-03-18T12:15:03.229Z,1014.76
2023-03-18T12:20:04.331Z,1014.83
2023-03-18T12:25:03.285Z,1014.84
2023-03-18T12:30:04.356Z,1014.88
2023-03-18T12:35:03.409Z,1014.96
2023-03-18T12:40:04.228Z,1014.97
2023-03-18T12:45:03.207Z,1015.02
2023-03-18T12:50:04.355Z,1015.07
2023-03-18T12:55:03.274Z,1015.02
2023-03-18T13:00:04.456Z,1015.0
2023-03-18T13:05:03.411Z,1015.04
2023-03-18T13:10:04.486Z,1015.08
2023-03-18T13:15:03.386Z,1015.01
2023-03-18T13:20:04.374Z,1015.01
2023-03-18T13:25:03.248Z,1014.97
2023-03-18T13:30:04.376Z,1014.91
2023-03-18T13:35:03.361Z,1014.93
2023-03-18T13:40:04.463Z,1015.01
2023-03-18T13:45:03.279Z,1014.99
2023-03-18T13:50:04.275Z,1014.96
2023-03-18T13:55:03.256Z,1014.93
2023-03-18T14:00:04.238Z,1014.87
2023-03-18T14:05:03.314Z,1014.84
2023-03-18T14:10:17.570Z,1014.73
2023-03-18T14:15:03.230Z,1014.73
2023-03-18T14:20:04.476Z,1014.74
2023-03-18T14:25:03.373Z,1014.72
2023-03-18T14:30:04.363Z,1014.66
2023-03-18T14:35:03.370Z,1014.64
2023-03-18T14:40:04.223Z,1014.59
2023-03-18T14:45:03.209Z,1014.5
2023-03-18T14:50:04.447Z,1014.49
2023-03-18T14:55:03.319Z,1014.49
2023-03-18T15:00:04.392Z,1014.44
2023-03-18T15:05:03.333Z,1014.34
2023-03-18T15:10:04.228Z,1014.37
2023-03-18T15:15:03.247Z,1014.27
2023-03-18T15:20:04.557Z,1014.19
2023-03-18T15:25:03.327Z,1014.14
2023-03-18T15:30:04.382Z,1014.05
2023-03-18T15:35:03.358Z,1014.03
2023-03-18T15:40:04.439Z,1013.98
2023-03-18T15:45:03.182Z,1013.9
2023-03-18T15:50:04.287Z,1013.76
2023-03-18T15:55:03.233Z,1013.63
2023-03-18T16:00:04.497Z,1013.58
2023-03-18T16:05:03.367Z,1013.52
2023-03-18T16:10:04.238Z,1013.4
2023-03-18T16:15:03.221Z,1013.4
2023-03-18T16:20:04.324Z,1013.29
2023-03-18T16:25:03.316Z,1013.23
2023-03-18T16:30:06.553Z,1013.19
2023-03-18T16:35:03.415Z,1013.11
2023-03-18T16:40:04.219Z,1013.07
2023-03-18T16:45:03.224Z,1013.01
2023-03-18T16:50:04.263Z,1012.86
2023-03-18T16:55:03.327Z,1012.8
2023-03-18T17:00:04.399Z,1012.73
2023-03-18T17:05:03.505Z,1012.65
2023-03-18T17:10:04.268Z,1012.58
2023-03-18T17:15:03.240Z,1012.5
2023-03-18T17:20:04.544Z,1012.43
2023-03-18T17:25:03.312Z,1012.32
2023-03-18T17:30:04.389Z,1012.2
2023-03-18T17:35:03.439Z,1012.07
2023-03-18T17:40:04.438Z,1011.89
2023-03-18T17:45:04.300Z,1011.7
2023-03-18T17:50:04.771Z,1011.6
2023-03-18T17:55:03.267Z,1011.52
2023-03-18T18:00:04.428Z,1011.44
2023-03-18T18:05:03.349Z,1011.32
2023-03-18T18:10:04.805Z,1011.18
2023-03-18T18:15:03.240Z,1011.14
2023-03-18T18:20:04.340Z,1011.12
2023-03-18T18:25:03.264Z,1011.08
2023-03-18T18:30:04.344Z,1011.06
2023-03-18T18:35:03.328Z,1010.93
2023-03-18T18:40:04.454Z,1010.87
2023-03-18T18:45:03.159Z,1010.85
2023-03-18T18:50:04.568Z,1010.7
2023-03-18T18:55:03.221Z,1010.52
2023-03-18T19:00:04.386Z,1010.33
2023-03-18T19:05:03.334Z,1010.18
2023-03-18T19:10:04.272Z,1010.05
2023-03-18T19:15:03.191Z,1009.99
2023-03-18T19:20:04.293Z,1009.96
2023-03-18T19:25:03.490Z,1010.01
2023-03-18T19:30:04.378Z,1010.0
2023-03-18T19:35:03.348Z,1009.86
2023-03-18T19:40:04.680Z,1009.89
2023-03-18T19:45:03.249Z,1009.83
2023-03-18T19:50:04.495Z,1009.76
2023-03-18T19:55:03.236Z,1009.75
2023-03-18T20:00:04.412Z,1009.76
2023-03-18T20:05:03.302Z,1009.79
2023-03-18T20:10:04.453Z,1009.76
2023-03-18T20:15:03.534Z,1009.75
2023-03-18T20:20:05.312Z,1009.82
2023-03-18T20:25:03.346Z,1009.77
2023-03-18T20:30:04.328Z,1009.79
2023-03-18T20:35:03.777Z,1009.82
2023-03-18T20:40:04.483Z,1009.84
2023-03-18T20:45:03.251Z,1009.89
2023-03-18T20:50:05.225Z,1009.94
2023-03-18T20:55:03.305Z,1009.91
2023-03-18T21:00:04.874Z,1009.94
2023-03-18T21:05:03.464Z,1009.99
2023-03-18T21:10:04.874Z,1010.08
2023-03-18T21:15:03.220Z,1010.08
2023-03-18T21:20:15.414Z,1010.07
2023-03-18T21:25:04.824Z,1010.11
2023-03-18T21:30:04.591Z,1010.25
2023-03-18T21:35:03.349Z,1010.34
2023-03-18T21:40:04.473Z,1010.41
2023-03-18T21:45:03.535Z,1010.39
2023-03-18T21:50:04.223Z,1010.43
2023-03-18T21:55:03.243Z,1010.43
2023-03-18T22:00:04.458Z,1010.43
2023-03-18T22:05:03.334Z,1010.48
2023-03-18T22:10:04.525Z,1010.55
2023-03-18T22:15:03.254Z,1010.73
2023-03-18T22:20:04.310Z,1010.96
2023-03-18T22:25:03.261Z,1011.09
2023-03-18T22:30:04.390Z,1011.07
2023-03-18T22:35:03.340Z,1011.13
2023-03-18T22:40:04.444Z,1011.2
2023-03-18T22:45:03.490Z,1011.29
2023-03-18T22:50:04.344Z,1011.39
2023-03-18T22:55:03.350Z,1011.49
2023-03-18T23:00:04.366Z,1011.59
2023-03-18T23:05:03.430Z,1011.7
2023-03-18T23:10:04.455Z,1011.81
2023-03-18T23:15:03.412Z,1011.91
2023-03-18T23:20:04.661Z,1012.0
2023-03-18T23:25:03.266Z,1012.06
2023-03-18T23:30:04.348Z,1012.06
2023-03-18T23:35:03.318Z,1012.02
2023-03-18T23:40:04.227Z,1012.05
2023-03-18T23:45:03.442Z,1012.13
2023-03-18T23:50:04.304Z,1012.11
2023-03-18T23:55:03.272Z,1012.18
